ADDS METAR Data INFO
IDs: Format: Raw Decoded Include TAF

Data at: 1133 UTC 29 May 2017

KE11 291115Z AUTO 34004KT 10SM CLR 12/07 A3015 RMK AO2 T01240066
KE11 291055Z AUTO 00000KT 10SM CLR 13/07 A3015 RMK AO2 T01260069
KE11 291035Z AUTO 00000KT 10SM CLR 13/07 A3014 RMK AO2 T01260070
KE11 291015Z AUTO 01003KT 10SM CLR 13/07 A3015 RMK AO2 T01300071
KE11 290955Z AUTO 00000KT 10SM CLR 14/07 A3014 RMK AO2 T01350073
KE11 290935Z AUTO 00000KT 10SM CLR 13/07 A3014 RMK AO2 T01320074
KE11 290915Z AUTO 00000KT 10SM CLR 14/08 A3014 RMK AO2 T01350076
KE11 290855Z AUTO 04003KT 10SM CLR 14/08 A3014 RMK AO2 T01350077
KE11 290835Z AUTO 00000KT 10SM CLR 14/08 A3014 RMK AO2 T01410079
KE11 290815Z AUTO 00000KT 10SM CLR 14/08 A3014 RMK AO2 T01410078
KE11 290755Z AUTO 00000KT 10SM CLR 15/08 A3014 RMK AO2 T01460080
KE11 290735Z AUTO 00000KT 10SM CLR 16/09 A3014 RMK AO2 T01550085
KE11 290715Z AUTO 09004KT 10SM CLR 16/08 A3015 RMK AO2 T01560083
KE11 290655Z AUTO 08004KT 10SM CLR 17/09 A3016 RMK AO2 T01680085
KE11 290635Z AUTO 10005KT 10SM CLR 17/09 A3015 RMK AO2 T01710085
KE11 290615Z AUTO 09005KT 10SM CLR 17/09 A3016 RMK AO2 T01670086
KE11 290555Z AUTO 10006KT 10SM CLR 16/08 A3015 RMK AO2 T01600082 10278 20160
KE11 290535Z AUTO 07003KT 10SM CLR 17/08 A3014 RMK AO2 T01690082
KE11 290515Z AUTO 03007KT 10SM CLR 17/08 A3012 RMK AO2 T01700081
KE11 290455Z AUTO 04005KT 10SM CLR 18/08 A3011 RMK AO2 LTG DSNT SE T01760082 402940150
KE11 290435Z AUTO 04006KT 10SM CLR 18/08 A3010 RMK AO2 T01800082
KE11 290415Z AUTO 06004KT 10SM CLR 19/08 A3010 RMK AO2 T01870082
KE11 290355Z AUTO 08003KT 10SM CLR 19/08 A3010 RMK AO2 T01930083
KE11 290335Z AUTO 08005KT 10SM CLR 21/09 A3010 RMK AO2 T02090085
KE11 290315Z AUTO 09005KT 10SM CLR 22/09 A3010 RMK AO2 T02180086
KE11 290255Z AUTO 10007KT 10SM CLR 23/09 A3010 RMK AO2 T02280086
KE11 290235Z AUTO 09008KT 10SM CLR 23/09 A3010 RMK AO2 T02340086
KE11 290215Z AUTO 10008KT 10SM CLR 24/09 A3010 RMK AO2 T02370085
KE11 290155Z AUTO 10009KT 10SM CLR 24/09 A3009 RMK AO2 T02440085
KE11 290135Z AUTO 09010G15KT 10SM CLR 25/08 A3008 RMK AO2 T02520081
KE11 290115Z AUTO 08009KT 10SM CLR 26/08 A3007 RMK AO2 T02600082
KE11 290055Z AUTO 09009KT 10SM CLR 27/08 A3006 RMK AO2 T02650081
KE11 290035Z AUTO 07009G16KT 10SM CLR 27/08 A3005 RMK AO2 T02690080
KE11 290015Z AUTO 06010KT 10SM CLR 27/08 A3005 RMK AO2 T02740079
KE11 282355Z AUTO 07016G19KT 10SM CLR 28/08 A3005 RMK AO2 T02780079 10294 20263
KE11 282335Z AUTO 08012G18KT 10SM CLR 28/08 A3005 RMK AO2 T02800077
KE11 282315Z AUTO 07008G17KT 10SM CLR 28/08 A3005 RMK AO2 LTG DSNT E T02840077
KE11 282255Z AUTO 08011G18KT 10SM CLR 28/08 A3006 RMK AO2 T02830076
KE11 282235Z AUTO 09015G20KT 10SM CLR 29/08 A3006 RMK AO2 T02860076
KE11 282215Z AUTO 10012G19KT 10SM CLR 29/08 A3007 RMK AO2 T02910076
KE11 282155Z AUTO 08012G19KT 10SM CLR 29/07 A3008 RMK AO2 T02860073
KE11 282135Z AUTO 01010G17KT 10SM CLR 29/07 A3008 RMK AO2 T02880070
KE11 282115Z AUTO 06009G20KT 10SM CLR 29/07 A3009 RMK AO2 T02870070
KE11 282055Z AUTO 06013G21KT 030V100 10SM CLR 28/07 A3009 RMK AO2 T02780071
KE11 282035Z AUTO 04012G22KT 10SM CLR 29/07 A3010 RMK AO2 T02870073
KE11 282015Z AUTO 04013G22KT 10SM CLR 29/07 A3010 RMK AO2 T02880073
KE11 281955Z AUTO 03012G19KT 10SM CLR 28/07 A3010 RMK AO2 T02800073
KE11 281935Z AUTO 05013G19KT 10SM CLR 28/08 A3011 RMK AO2 LTG DSNT E T02800077
KE11 281915Z AUTO 06014G21KT 10SM CLR 28/07 A3012 RMK AO2 LTG DSNT SE T02770074
KE11 281855Z AUTO 03013G19KT 10SM CLR 28/08 A3013 RMK AO2 T02750075
KE11 281835Z AUTO 03011G22KT 10SM CLR 27/07 A3013 RMK AO2 T02670071
KE11 281815Z AUTO 04016G23KT 10SM CLR 27/08 A3013 RMK AO2 T02670075
KE11 281755Z AUTO 05015G25KT 10SM CLR 26/08 A3014 RMK AO2 T02630076 10264 20150
KE11 281735Z AUTO 05013G22KT 10SM CLR 26/08 A3016 RMK AO2 T02590079
KE11 281715Z AUTO 05011G20KT 10SM CLR 25/08 A3016 RMK AO2 T02510081
KE11 281655Z AUTO 03012G19KT 10SM CLR 25/08 A3016 RMK AO2 T02480083
KE11 281635Z AUTO 03015G19KT 10SM CLR 24/09 A3016 RMK AO2 T02370085
KE11 281615Z AUTO 03013G20KT 10SM CLR 22/08 A3017 RMK AO2 T02230082
KE11 281555Z AUTO 02014G20KT 10SM CLR 22/08 A3017 RMK AO2 T02240084
KE11 281535Z AUTO 02017G23KT 10SM CLR 21/08 A3016 RMK AO2 T02140082
KE11 281515Z AUTO 04016G25KT 10SM CLR 21/08 A3015 RMK AO2 T02070082
KE11 281455Z AUTO 03018G25KT 10SM CLR 20/08 A3015 RMK AO2 T01960083
KE11 281435Z AUTO 04017G25KT 10SM CLR 19/09 A3014 RMK AO2 T01860085
KE11 281415Z AUTO 04019G26KT 10SM CLR 18/08 A3014 RMK AO2 T01840082
KE11 281355Z AUTO 02018G26KT 10SM CLR 18/09 A3014 RMK AO2 T01790085
KE11 281335Z AUTO 03022KT 10SM CLR 18/09 A3013 RMK AO2 T01750091
KE11 281315Z AUTO 03015G23KT 10SM CLR 17/10 A3013 RMK AO2 T01670095
KE11 281255Z AUTO 03016G23KT 10SM CLR 16/10 A3011 RMK AO2 T01600095
KE11 281235Z AUTO 02014G20KT 10SM CLR 16/09 A3010 RMK AO2 T01550093
KE11 281215Z AUTO 03015G22KT 10SM CLR 15/09 A3010 RMK AO2 T01510092
KE11 281155Z AUTO 02013G19KT 10SM CLR 15/09 A3009 RMK AO2 T01500086 10268 20150
KE11 281135Z AUTO 03012G17KT 10SM CLR 15/09 A3008 RMK AO2 T01520086
KE11 281115Z AUTO 03015G21KT 10SM CLR 15/09 A3007 RMK AO2 T01530086
KE11 281055Z AUTO 03016G20KT 10SM CLR 16/09 A3006 RMK AO2 T01560087
KE11 281035Z AUTO 02021KT 10SM CLR 16/09 A3004 RMK AO2 T01620086
KE11 281015Z AUTO 03015G23KT 10SM CLR 17/09 A3004 RMK AO2 T01710093
KE11 280955Z AUTO 03017G24KT 10SM SCT017 18/10 A3003 RMK AO2 T01750100
KE11 280935Z AUTO 04020G27KT 10SM BKN017 18/11 A3003 RMK AO2 T01800109
KE11 280915Z AUTO 03014G28KT 7SM BKN015 19/12 A3003 RMK AO2 T01890115
KE11 280855Z AUTO 03022G35KT 10SM SCT013 SCT019 21/13 A2999 RMK AO2 T02140131
KE11 280835Z AUTO 03022G26KT 10SM CLR 22/11 A3001 RMK AO2 T02150106
KE11 280815Z AUTO 03015G22KT 10SM CLR 22/00 A2999 RMK AO2 LTG DSNT E T02220001
KE11 280755Z AUTO 35016G23KT 10SM CLR 26/M11 A2996 RMK AO2 T02561108
KE11 280735Z AUTO 32012G16KT 10SM CLR 26/M11 A2992 RMK AO2 T02631108
KE11 280715Z AUTO 31012G17KT 10SM CLR 27/M11 A2991 RMK AO2 T02651110
KE11 280655Z AUTO 31013KT 10SM CLR 27/M11 A2991 RMK AO2 T02671108
KE11 280635Z AUTO 31010G15KT 10SM CLR 26/M10 A2992 RMK AO2 T02601096
KE11 280615Z AUTO 31010KT 10SM CLR 26/M09 A2992 RMK AO2 T02561092
KE11 280555Z AUTO 30010KT 10SM CLR 26/M09 A2992 RMK AO2 T02551087 10352 20255
KE11 280535Z AUTO 29009KT 10SM CLR 27/M10 A2993 RMK AO2 T02731097
KE11 280515Z AUTO 29011KT 10SM CLR 27/M08 A2993 RMK AO2 T02721083
KE11 280455Z AUTO 29011KT 10SM CLR 28/M07 A2993 RMK AO2 T02751072 403630200
KE11 280435Z AUTO 27008KT 10SM CLR 28/M07 A2992 RMK AO2 T02801070
KE11 280415Z AUTO 27008KT 10SM CLR 28/M06 A2992 RMK AO2 T02801057
KE11 280355Z AUTO 27009KT 10SM CLR 29/M06 A2992 RMK AO2 T02881061
KE11 280335Z AUTO 29007KT 10SM CLR 29/M06 A2991 RMK AO2 T02851056
KE11 280315Z AUTO 27006KT 10SM CLR 27/M02 A2991 RMK AO2 T02731024
KE11 280255Z AUTO 26003KT 10SM CLR 28/M02 A2990 RMK AO2 T02821016
KE11 280235Z AUTO 00000KT 10SM CLR 29/M01 A2990 RMK AO2 T02881007
KE11 280215Z AUTO 00000KT 10SM CLR 30/00 A2989 RMK AO2 T03021004
KE11 280155Z AUTO 00000KT 10SM CLR 31/00 A2989 RMK AO2 T03050003
KE11 280135Z AUTO 30004KT 10SM CLR 32/00 A2988 RMK AO2 T03181003
KE11 280115Z AUTO 28007KT 10SM CLR 33/M01 A2987 RMK AO2 T03341015
KE11 280055Z AUTO 27008KT 10SM CLR 34/M02 A2987 RMK AO2 T03401017
KE11 280035Z AUTO 28007KT 10SM CLR 35/M02 A2986 RMK AO2 T03451021
KE11 280015Z AUTO 28007KT 10SM CLR 35/M03 A2987 RMK AO2 T03491031
KE11 272355Z AUTO 24010G14KT 10SM CLR 35/M04 A2987 RMK AO2 T03521036 10363 20333
KE11 272335Z AUTO 26010G17KT 10SM CLR 36/M05 A2987 RMK AO2 T03551050


Page loaded:  11:33 UTC  |   04:33 AM Pacific  |   05:33 AM Mountain  |   06:33 AM Central  |   07:33 AM Eastern

 

ADVISORIES

FORECASTS

FORECASTS

OBSERVATIONS

USER TOOLS

ABOUT US